Time;durP1;ratioP1;P1;durP2;ratioP2;P2;SDS_P1;SDS_P2;PMS_P1;PMS_P2;Temp;Humidity;BMP_temperature;BMP_pressure;BME280_temperature;BME280_humidity;BME280_pressure;Samples;Min_cycle;Max_cycle;Signal;HPM_P1;HPM_P2
2022/02/27 00:01:13;;;;;;;21.48;9.13;;;;;;;0.08;100.00;103273.53;5075957;28;20055;-56
2022/02/27 00:03:41;;;;;;;24.90;8.98;;;;;;;0.04;100.00;103284.66;5075742;28;20056;-54
2022/02/27 00:06:10;;;;;;;17.52;7.88;;;;;;;0.06;100.00;103282.94;5075919;28;20049;-53
2022/02/27 00:08:38;;;;;;;21.65;8.63;;;;;;;0.02;100.00;103286.31;5075894;28;20075;-52
2022/02/27 00:11:06;;;;;;;20.08;7.55;;;;;;;0.05;100.00;103276.03;5075570;28;20048;-55
2022/02/27 00:13:34;;;;;;;21.58;8.73;;;;;;;0.04;100.00;103287.25;5075587;28;20052;-56
2022/02/27 00:16:02;;;;;;;17.98;7.55;;;;;;;-0.02;100.00;103290.56;5075611;28;20040;-56
2022/02/27 00:18:32;;;;;;;22.20;8.77;;;;;;;-0.04;100.00;103292.28;5075499;28;20399;-55
2022/02/27 00:21:00;;;;;;;22.02;8.40;;;;;;;-0.06;100.00;103300.84;5073685;28;20055;-53
2022/02/27 00:23:28;;;;;;;19.10;8.40;;;;;;;-0.07;100.00;103299.09;5074947;28;20515;-55
2022/02/27 00:25:57;;;;;;;22.67;8.15;;;;;;;-0.07;100.00;103299.09;5075317;28;20040;-55
2022/02/27 00:28:25;;;;;;;22.20;9.25;;;;;;;-0.07;100.00;103301.69;5075723;28;20549;-52
2022/02/27 00:30:53;;;;;;;19.05;7.65;;;;;;;-0.09;100.00;103298.22;5073898;28;20048;-56
2022/02/27 00:33:21;;;;;;;19.25;8.32;;;;;;;-0.10;100.00;103301.63;5075311;28;20056;-55
2022/02/27 00:35:50;;;;;;;24.10;7.95;;;;;;;-0.07;100.00;103305.16;5075228;28;20522;-54
2022/02/27 00:38:19;;;;;;;19.90;7.38;;;;;;;-0.07;100.00;103305.16;5075140;28;20056;-56
2022/02/27 00:40:46;;;;;;;18.92;7.47;;;;;;;-0.12;100.00;103303.31;5075078;28;20119;-54
2022/02/27 00:43:15;;;;;;;18.10;7.38;;;;;;;-0.19;100.00;103307.53;5074963;28;20040;-55
2022/02/27 00:45:43;;;;;;;22.75;7.65;;;;;;;-0.22;100.00;103304.84;5075040;28;20044;-56
2022/02/27 00:48:11;;;;;;;26.10;7.60;;;;;;;-0.21;100.00;103299.69;5075064;28;20127;-56
2022/02/27 00:50:39;;;;;;;19.75;7.93;;;;;;;-0.26;100.00;103296.19;5075058;28;20052;-54
2022/02/27 00:53:09;;;;;;;22.40;8.50;;;;;;;-0.27;100.00;103304.78;5074354;28;20083;-57
2022/02/27 00:55:37;;;;;;;19.65;8.93;;;;;;;-0.29;100.00;103300.41;5074848;28;20059;-56
2022/02/27 00:58:05;;;;;;;18.73;7.10;;;;;;;-0.32;100.00;103302.94;5075010;28;20056;-55
2022/02/27 01:00:34;;;;;;;16.83;7.78;;;;;;;-0.29;100.00;103296.09;5074199;28;20475;-55
2022/02/27 01:03:02;;;;;;;17.65;7.63;;;;;;;-0.29;100.00;103290.06;5075006;28;20094;-55
2022/02/27 01:05:30;;;;;;;20.83;8.52;;;;;;;-0.32;100.00;103290.00;5074570;28;20060;-54
2022/02/27 01:07:58;;;;;;;25.30;8.80;;;;;;;-0.38;100.00;103283.88;5074694;28;20056;-54
2022/02/27 01:10:29;;;;;;;28.95;9.52;;;;;;;-0.36;100.00;103284.75;5073298;28;20114;-55
2022/02/27 01:12:57;;;;;;;30.55;9.00;;;;;;;-0.34;100.00;103287.41;5070001;28;20044;-54
2022/02/27 01:15:25;;;;;;;21.63;9.05;;;;;;;-0.31;100.00;103289.16;5072358;28;20505;-55
2022/02/27 01:17:53;;;;;;;26.17;8.32;;;;;;;-0.28;100.00;103290.09;5074405;28;20396;-54
2022/02/27 01:20:21;;;;;;;20.05;7.80;;;;;;;-0.27;100.00;103289.25;5074245;28;20383;-54
2022/02/27 01:22:50;;;;;;;20.13;7.90;;;;;;;-0.25;100.00;103276.34;5070969;28;20060;-55
2022/02/27 01:25:18;;;;;;;20.92;6.93;;;;;;;-0.31;100.00;103281.38;5071522;28;20428;-54
2022/02/27 01:27:48;;;;;;;21.23;7.78;;;;;;;-0.29;100.00;103282.31;5074104;28;20140;-53
2022/02/27 01:30:16;;;;;;;21.70;7.30;;;;;;;-0.34;100.00;103277.06;5074368;28;20534;-53
2022/02/27 01:32:44;;;;;;;22.60;7.57;;;;;;;-0.36;100.00;103284.75;5074063;28;20414;-58
2022/02/27 01:35:12;;;;;;;23.25;7.75;;;;;;;-0.32;100.00;103285.69;5074119;28;20399;-54
2022/02/27 01:37:41;;;;;;;19.85;7.20;;;;;;;-0.32;100.00;103285.69;5073994;28;20098;-55
2022/02/27 01:40:09;;;;;;;18.77;7.20;;;;;;;-0.35;100.00;103278.75;5074160;28;20047;-54
2022/02/27 01:42:38;;;;;;;19.90;7.00;;;;;;;-0.36;100.00;103283.91;5073910;28;20044;-54
2022/02/27 01:45:09;;;;;;;23.27;7.32;;;;;;;-0.37;100.00;103279.56;5073797;28;20055;-55
2022/02/27 01:47:39;;;;;;;26.15;8.85;;;;;;;-0.37;100.00;103277.88;5070305;28;20063;-54
2022/02/27 01:50:08;;;;;;;27.90;10.05;;;;;;;-0.38;100.00;103285.59;5069573;28;20067;-51
2022/02/27 01:52:36;;;;;;;28.98;10.05;;;;;;;-0.37;100.00;103276.97;5072774;28;20056;-56
2022/02/27 01:55:06;;;;;;;33.05;10.18;;;;;;;-0.36;100.00;103278.72;5069751;28;20044;-54
2022/02/27 01:57:37;;;;;;;33.58;9.75;;;;;;;-0.32;100.00;103275.34;5072397;28;20052;-56
2022/02/27 02:00:09;;;;;;;28.67;8.43;;;;;;;-0.34;100.00;103274.47;5073493;28;20056;-54
2022/02/27 02:02:37;;;;;;;25.37;8.00;;;;;;;-0.39;100.00;103270.91;5073878;28;20530;-56
2022/02/27 02:05:06;;;;;;;24.75;7.60;;;;;;;-0.39;100.00;103281.25;5072021;28;20540;-55
2022/02/27 02:07:35;;;;;;;18.17;7.10;;;;;;;-0.39;100.00;103270.91;5069897;28;20408;-46
2022/02/27 02:10:04;;;;;;;18.58;7.80;;;;;;;-0.41;100.00;103272.59;5071109;28;20041;-43
2022/02/27 02:12:32;;;;;;;20.20;7.32;;;;;;;-0.41;100.00;103275.16;5071523;28;20048;-44
2022/02/27 02:15:00;;;;;;;21.52;7.97;;;;;;;-0.41;100.00;103275.16;5073350;28;20499;-44
2022/02/27 02:17:30;;;;;;;14.32;6.75;;;;;;;-0.43;100.00;103277.72;5073549;28;20067;-47
2022/02/27 02:20:00;;;;;;;14.85;5.90;;;;;;;-0.47;100.00;103285.41;5071679;28;20446;-44
2022/02/27 02:22:28;;;;;;;21.35;6.53;;;;;;;-0.48;100.00;103283.66;5072885;28;20312;-44
2022/02/27 02:24:56;;;;;;;16.73;7.82;;;;;;;-0.47;100.00;103281.09;5073156;28;20056;-44
2022/02/27 02:27:24;;;;;;;15.88;5.95;;;;;;;-0.49;100.00;103277.63;5070255;28;20408;-43
2022/02/27 02:29:52;;;;;;;19.02;6.80;;;;;;;-0.50;100.00;103275.88;5069093;28;20121;-43
2022/02/27 02:32:20;;;;;;;17.80;6.45;;;;;;;-0.47;100.00;103272.47;5072939;28;20051;-47
2022/02/27 02:34:49;;;;;;;15.63;6.40;;;;;;;-0.47;100.00;103277.66;5073078;28;20052;-44
2022/02/27 02:37:18;;;;;;;20.90;6.25;;;;;;;-0.51;100.00;103267.22;5072896;28;20102;-43
2022/02/27 02:39:46;;;;;;;17.48;6.40;;;;;;;-0.53;100.00;103266.34;5068852;28;20053;-42
2022/02/27 02:42:15;;;;;;;18.27;6.30;;;;;;;-0.50;100.00;103273.28;5069259;28;20551;-44
2022/02/27 02:44:43;;;;;;;18.48;6.72;;;;;;;-0.52;100.00;103267.19;5071845;28;20056;-44
2022/02/27 02:47:11;;;;;;;11.90;5.88;;;;;;;-0.53;100.00;103271.50;5066285;28;20076;-49
2022/02/27 02:49:39;;;;;;;15.77;6.07;;;;;;;-0.56;100.00;103265.38;5069958;28;20045;-43
2022/02/27 02:52:08;;;;;;;20.27;7.18;;;;;;;-0.58;100.00;103262.78;5072474;28;20072;-49
2022/02/27 02:54:37;;;;;;;23.88;7.05;;;;;;;-0.58;100.00;103259.34;5072573;28;20369;-55
2022/02/27 02:57:06;;;;;;;21.75;7.82;;;;;;;-0.60;100.00;103261.00;5071113;28;20452;-56
2022/02/27 02:59:34;;;;;;;25.75;7.25;;;;;;;-0.61;100.00;103256.69;5072517;28;20071;-55
2022/02/27 03:02:02;;;;;;;27.38;8.48;;;;;;;-0.59;100.00;103265.34;5072311;28;20099;-53
2022/02/27 03:04:30;;;;;;;30.65;9.13;;;;;;;-0.64;100.00;103252.34;5069858;28;20068;-54
2022/02/27 03:06:58;;;;;;;32.03;11.13;;;;;;;-0.64;100.00;103252.34;5068128;28;20048;-55
2022/02/27 03:09:26;;;;;;;34.47;10.82;;;;;;;-0.62;100.00;103250.63;5072175;28;20075;-54
2022/02/27 03:11:56;;;;;;;30.85;9.50;;;;;;;-0.61;100.00;103244.63;5072192;28;20127;-56
2022/02/27 03:14:24;;;;;;;32.63;9.63;;;;;;;-0.58;100.00;103238.66;5072088;28;20086;-54
2022/02/27 03:16:52;;;;;;;26.50;8.50;;;;;;;-0.58;100.00;103247.28;5072492;28;20068;-56
2022/02/27 03:19:20;;;;;;;23.45;9.75;;;;;;;-0.57;100.00;103243.00;5068529;28;20079;-54
2022/02/27 03:21:48;;;;;;;28.83;8.65;;;;;;;-0.51;100.00;103237.94;5067812;28;20119;-53
2022/02/27 03:24:16;;;;;;;27.23;9.45;;;;;;;-0.53;100.00;103235.31;5071869;28;20045;-54
2022/02/27 03:26:45;;;;;;;29.15;8.68;;;;;;;-0.55;100.00;103236.97;5070905;28;20048;-54
2022/02/27 03:29:15;;;;;;;24.27;7.85;;;;;;;-0.53;100.00;103230.16;5072006;28;20048;-46
2022/02/27 03:31:43;;;;;;;25.88;7.90;;;;;;;-0.49;100.00;103230.19;5072240;28;20072;-44
2022/02/27 03:34:11;;;;;;;22.65;6.72;;;;;;;-0.51;100.00;103225.84;5072456;28;20045;-43
2022/02/27 03:36:40;;;;;;;23.70;7.78;;;;;;;-0.48;100.00;103221.59;5071822;28;20078;-52
2022/02/27 03:39:08;;;;;;;17.50;7.15;;;;;;;-0.53;100.00;103224.97;5071819;28;20052;-44
2022/02/27 03:41:36;;;;;;;20.67;7.68;;;;;;;-0.54;100.00;103230.97;5070114;28;20539;-47
2022/02/27 03:44:05;;;;;;;23.17;8.38;;;;;;;-0.44;100.00;103231.16;5067873;28;20114;-45
2022/02/27 03:46:35;;;;;;;32.00;9.43;;;;;;;-0.52;100.00;103221.56;5070918;28;20048;-47
2022/02/27 03:49:03;;;;;;;33.63;9.93;;;;;;;-0.51;100.00;103232.75;5072114;28;20423;-46
2022/02/27 03:51:33;;;;;;;29.27;9.93;;;;;;;-0.56;100.00;103227.50;5071865;28;20048;-45
2022/02/27 03:54:02;;;;;;;29.83;9.07;;;;;;;-0.57;100.00;103225.75;5071767;28;20472;-46
2022/02/27 03:56:30;;;;;;;27.15;8.30;;;;;;;-0.51;100.00;103232.75;5071911;28;20051;-45
2022/02/27 03:58:58;;;;;;;22.92;8.23;;;;;;;-0.47;100.00;103228.53;5071835;28;20068;-45
2022/02/27 04:01:26;;;;;;;19.35;6.65;;;;;;;-0.50;100.00;103229.34;5071587;28;20438;-44
2022/02/27 04:03:56;;;;;;;17.92;6.47;;;;;;;-0.54;100.00;103230.97;5071414;28;20106;-43
2022/02/27 04:06:24;;;;;;;19.40;6.47;;;;;;;-0.62;100.00;103227.38;5071780;28;20049;-47
2022/02/27 04:08:52;;;;;;;23.75;7.55;;;;;;;-0.53;100.00;103227.56;5071730;28;20056;-43
2022/02/27 04:11:21;;;;;;;14.88;5.63;;;;;;;-0.58;100.00;103218.84;5071712;28;20048;-46
2022/02/27 04:13:49;;;;;;;27.52;6.72;;;;;;;-0.60;100.00;103217.06;5071769;28;20072;-45
2022/02/27 04:16:17;;;;;;;17.92;6.13;;;;;;;-0.64;100.00;103210.97;5070398;28;20055;-46
2022/02/27 04:18:45;;;;;;;14.63;5.40;;;;;;;-0.63;100.00;103217.00;5071688;28;20055;-44
2022/02/27 04:21:15;;;;;;;14.38;5.53;;;;;;;-0.69;100.00;103215.19;5071733;28;20049;-44
2022/02/27 04:23:43;;;;;;;17.40;6.40;;;;;;;-0.72;100.00;103221.16;5069231;28;20052;-43
2022/02/27 04:26:11;;;;;;;18.40;6.90;;;;;;;-0.73;100.00;103215.97;5067695;28;20044;-44
2022/02/27 04:28:39;;;;;;;17.05;6.47;;;;;;;-0.74;100.00;103224.53;5071093;28;20592;-43
2022/02/27 04:31:07;;;;;;;18.65;6.35;;;;;;;-0.75;100.00;103223.69;5071554;28;20070;-44
2022/02/27 04:33:36;;;;;;;22.83;7.45;;;;;;;-0.66;100.00;103217.81;5071341;28;20045;-44
2022/02/27 04:36:04;;;;;;;21.98;7.72;;;;;;;-0.74;100.00;103221.97;5071570;28;20068;-46
2022/02/27 04:38:34;;;;;;;30.60;10.27;;;;;;;-0.77;100.00;103227.06;5071668;28;20052;-47
2022/02/27 04:41:02;;;;;;;35.60;9.85;;;;;;;-0.70;100.00;103226.34;5074198;28;20590;-44
2022/02/27 04:43:30;;;;;;;35.45;9.98;;;;;;;-0.75;100.00;103222.78;5075131;28;20526;-53
2022/02/27 04:45:58;;;;;;;38.25;10.32;;;;;;;-0.70;100.00;103216.00;5072772;28;20048;-51
2022/02/27 04:48:27;;;;;;;35.08;10.02;;;;;;;-0.72;100.00;103217.72;5070630;28;20388;-46
2022/02/27 04:50:55;;;;;;;29.23;8.77;;;;;;;-0.82;100.00;103216.63;5073353;28;20395;-55
2022/02/27 04:53:23;;;;;;;22.30;7.43;;;;;;;-0.79;100.00;103210.66;5074496;28;20079;-50
2022/02/27 04:55:52;;;;;;;25.98;8.18;;;;;;;-0.81;100.00;103202.00;5074993;28;20106;-44
2022/02/27 04:58:20;;;;;;;17.77;7.47;;;;;;;-0.84;100.00;103209.72;5073294;28;20115;-47
2022/02/27 05:00:49;;;;;;;13.98;6.82;;;;;;;-0.87;100.00;103208.78;5070519;28;20044;-45
2022/02/27 05:03:17;;;;;;;20.73;7.25;;;;;;;-0.87;100.00;103206.22;5073227;28;20053;-46
2022/02/27 05:05:45;;;;;;;16.10;6.85;;;;;;;-0.91;100.00;103206.13;5074704;28;20036;-44
2022/02/27 05:08:14;;;;;;;21.70;7.03;;;;;;;-0.90;100.00;103202.69;5070423;28;20055;-45
2022/02/27 05:10:42;;;;;;;15.57;6.47;;;;;;;-0.93;100.00;103203.47;5071410;28;20436;-43
2022/02/27 05:13:11;;;;;;;13.90;6.50;;;;;;;-0.90;100.00;103203.56;5068408;28;20037;-46
2022/02/27 05:15:40;;;;;;;15.52;6.70;;;;;;;-0.94;100.00;103196.59;5061271;28;20079;-45
2022/02/27 05:18:08;;;;;;;19.70;7.00;;;;;;;-0.97;100.00;103196.50;5054093;28;20051;-46
2022/02/27 05:20:36;;;;;;;21.58;6.32;;;;;;;-0.96;100.00;103195.69;5050623;28;20048;-47
2022/02/27 05:23:04;;;;;;;24.42;7.68;;;;;;;-1.00;100.00;103199.03;5050966;28;20126;-55
2022/02/27 05:25:33;;;;;;;14.40;6.45;;;;;;;-0.92;100.00;103194.91;5053921;28;20111;-53
2022/02/27 05:28:01;;;;;;;15.57;6.35;;;;;;;-0.87;100.00;103198.47;5054629;28;20088;-55
2022/02/27 05:30:30;;;;;;;15.57;6.28;;;;;;;-0.94;100.00;103193.13;5054242;28;20041;-55
2022/02/27 05:32:58;;;;;;;15.15;6.30;;;;;;;-1.03;100.00;103193.81;5053954;28;20053;-55
2022/02/27 05:35:26;;;;;;;14.40;6.55;;;;;;;-1.04;100.00;103198.13;5053427;28;20116;-54
2022/02/27 05:37:55;;;;;;;18.08;6.90;;;;;;;-1.12;100.00;103197.06;5049968;28;20512;-55
2022/02/27 05:40:23;;;;;;;16.08;7.03;;;;;;;-1.12;100.00;103199.63;5052349;28;20072;-54
2022/02/27 05:42:51;;;;;;;15.27;6.75;;;;;;;-1.14;100.00;103200.47;5053792;28;20616;-46
2022/02/27 05:45:19;;;;;;;14.45;6.75;;;;;;;-1.12;100.00;103203.94;5050215;28;20102;-56
2022/02/27 05:47:51;;;;;;;17.30;7.00;;;;;;;-1.17;100.00;103202.97;5050093;28;20053;-53
2022/02/27 05:50:19;;;;;;;17.38;6.57;;;;;;;-1.21;100.00;103204.63;5053477;28;20134;-55
2022/02/27 05:52:47;;;;;;;15.90;6.88;;;;;;;-1.18;100.00;103209.00;5053601;28;20550;-52
2022/02/27 05:55:15;;;;;;;21.38;8.15;;;;;;;-1.20;100.00;103199.50;5053604;28;20057;-53
2022/02/27 05:57:43;;;;;;;18.35;6.25;;;;;;;-1.23;100.00;103214.94;5053550;28;20055;-55
2022/02/27 06:00:12;;;;;;;19.05;6.55;;;;;;;-1.22;100.00;103214.06;5053195;28;20068;-42
2022/02/27 06:02:41;;;;;;;22.75;6.82;;;;;;;-1.24;100.00;103208.03;5049248;28;20053;-56
2022/02/27 06:05:10;;;;;;;18.55;6.07;;;;;;;-1.17;100.00;103218.47;5050618;28;20057;-56
2022/02/27 06:07:39;;;;;;;12.68;6.28;;;;;;;-1.25;100.00;103216.59;5053445;28;20098;-54
2022/02/27 06:10:07;;;;;;;16.63;6.40;;;;;;;-1.24;100.00;103213.19;5050022;28;20053;-44
2022/02/27 06:12:35;;;;;;;12.32;6.38;;;;;;;-1.23;100.00;103214.03;5049511;28;20049;-46
2022/02/27 06:15:04;;;;;;;15.35;6.18;;;;;;;-1.24;100.00;103220.94;5053332;28;20049;-45
2022/02/27 06:17:32;;;;;;;12.70;5.55;;;;;;;-1.25;100.00;103223.47;5053342;28;20048;-46
2022/02/27 06:20:07;;;;;;;11.63;5.80;;;;;;;-1.31;100.00;103216.47;5053398;28;20488;-54
2022/02/27 06:22:41;;;;;;;18.02;6.72;;;;;;;-1.31;100.00;103223.34;5050820;28;20057;-54
2022/02/27 06:25:10;;;;;;;18.80;6.80;;;;;;;-1.36;100.00;103221.53;5049030;28;20392;-55
2022/02/27 06:27:42;;;;;;;18.73;6.40;;;;;;;-1.30;100.00;103227.66;5052963;28;20045;-56
2022/02/27 06:30:13;;;;;;;15.10;6.35;;;;;;;-1.33;100.00;103231.03;5053241;28;20052;-56
2022/02/27 06:32:41;;;;;;;15.20;6.65;;;;;;;-1.31;100.00;103231.06;5052991;28;20387;-54
2022/02/27 06:35:12;;;;;;;14.80;6.20;;;;;;;-1.31;100.00;103233.66;5052761;28;20110;-55
2022/02/27 06:37:42;;;;;;;17.92;6.32;;;;;;;-1.33;100.00;103233.63;5052744;28;20514;-55
2022/02/27 06:40:11;;;;;;;14.52;5.90;;;;;;;-1.31;100.00;103229.38;5053017;28;20056;-55
2022/02/27 06:42:40;;;;;;;16.05;7.18;;;;;;;-1.32;100.00;103234.50;5052145;28;20219;-56
2022/02/27 06:45:10;;;;;;;17.27;6.28;;;;;;;-1.34;100.00;103229.28;5052367;28;20053;-56
2022/02/27 06:47:39;;;;;;;20.65;5.93;;;;;;;-1.31;100.00;103231.97;5052622;28;20055;-55
2022/02/27 06:50:10;;;;;;;22.80;6.82;;;;;;;-1.32;100.00;103239.66;5052614;28;20044;-46
2022/02/27 06:52:38;;;;;;;14.32;5.50;;;;;;;-1.37;100.00;103234.41;5052520;28;20059;-44
2022/02/27 06:55:15;;;;;;;18.42;6.15;;;;;;;-1.32;100.00;103240.53;5052727;28;20123;-42
2022/02/27 06:57:43;;;;;;;11.65;5.80;;;;;;;-1.33;100.00;103246.53;5049805;28;20049;-43
2022/02/27 07:00:13;;;;;;;12.70;5.38;;;;;;;-1.35;100.00;103250.78;5048873;28;20552;-46
2022/02/27 07:02:41;;;;;;;15.07;6.25;;;;;;;-1.35;100.00;103255.94;5051866;28;20044;-54
2022/02/27 07:05:12;;;;;;;14.82;6.28;;;;;;;-1.32;100.00;103261.22;5051909;28;20411;-43
2022/02/27 07:07:40;;;;;;;14.30;6.15;;;;;;;-1.30;100.00;103253.50;5048888;28;20399;-54
2022/02/27 07:10:11;;;;;;;12.38;5.57;;;;;;;-1.26;100.00;103253.59;5049846;28;20102;-53
2022/02/27 07:12:39;;;;;;;13.50;5.45;;;;;;;-1.22;100.00;103260.56;5052174;28;20107;-45
2022/02/27 07:15:08;;;;;;;14.75;6.20;;;;;;;-1.21;100.00;103262.31;5048527;28;20068;-45
2022/02/27 07:17:36;;;;;;;16.15;6.18;;;;;;;-1.19;100.00;103257.19;5048203;28;20083;-54
2022/02/27 07:20:05;;;;;;;20.45;6.10;;;;;;;-1.16;100.00;103261.53;5052199;28;20048;-46
2022/02/27 07:22:36;;;;;;;15.02;6.80;;;;;;;-1.14;100.00;103262.47;5052411;28;20052;-45
2022/02/27 07:25:04;;;;;;;11.52;5.53;;;;;;;-1.08;100.00;103263.47;5050890;28;20056;-53
2022/02/27 07:27:34;;;;;;;13.65;6.20;;;;;;;-0.97;100.00;103258.50;5052168;28;20114;-55
2022/02/27 07:30:05;;;;;;;20.25;6.43;;;;;;;-0.84;100.00;103253.63;5050931;28;20144;-55
2022/02/27 07:32:33;;;;;;;14.15;5.55;;;;;;;-0.65;100.00;103260.91;5047908;28;20077;-54
2022/02/27 07:35:01;;;;;;;12.25;5.75;;;;;;;-0.48;100.00;103252.63;5048571;28;20049;-43
2022/02/27 07:37:30;;;;;;;14.18;5.55;;;;;;;-0.36;100.00;103256.31;5050168;28;20614;-43
2022/02/27 07:39:58;;;;;;;16.02;5.40;;;;;;;-0.09;100.00;103256.81;5048287;28;20388;-46
2022/02/27 07:42:26;;;;;;;17.25;6.03;;;;;;;0.28;100.00;103252.25;5051702;28;20091;-45
2022/02/27 07:44:56;;;;;;;14.43;5.80;;;;;;;0.10;100.00;103258.88;5052175;28;20103;-55
2022/02/27 07:47:25;;;;;;;14.90;5.32;;;;;;;0.52;100.00;103253.50;5051958;28;20048;-54
2022/02/27 07:49:53;;;;;;;15.38;5.70;;;;;;;0.61;100.00;103249.31;5052034;28;20427;-55
2022/02/27 07:52:21;;;;;;;17.30;5.22;;;;;;;0.75;100.00;103248.66;5052073;28;20515;-57
2022/02/27 07:54:49;;;;;;;14.52;5.43;;;;;;;0.96;100.00;103251.53;5047458;28;20064;-55
2022/02/27 07:57:18;;;;;;;18.60;5.53;;;;;;;1.10;100.00;103243.94;5048877;28;20045;-55
2022/02/27 07:59:46;;;;;;;12.93;5.70;;;;;;;1.23;100.00;103251.88;5052141;28;20053;-55
2022/02/27 08:02:16;;;;;;;11.70;5.15;;;;;;;1.29;100.00;103245.03;5051906;28;20045;-54
2022/02/27 08:04:44;;;;;;;12.25;4.85;;;;;;;1.23;100.00;103241.50;5051903;28;20096;-55
2022/02/27 08:07:12;;;;;;;12.48;4.50;;;;;;;1.49;100.00;103250.47;5051734;28;20468;-55
2022/02/27 08:09:41;;;;;;;14.70;5.28;;;;;;;1.71;100.00;103250.72;5052523;28;20519;-55
2022/02/27 08:12:10;;;;;;;11.43;5.18;;;;;;;1.60;100.00;103257.53;5055718;28;20051;-54
2022/02/27 08:14:38;;;;;;;10.73;5.05;;;;;;;1.79;100.00;103249.06;5055670;28;20079;-54
2022/02/27 08:17:06;;;;;;;17.02;6.43;;;;;;;1.95;100.00;103246.59;5052800;28;20118;-55
2022/02/27 08:19:35;;;;;;;13.00;5.03;;;;;;;2.23;100.00;103247.72;5051656;28;20049;-56
2022/02/27 08:22:04;;;;;;;15.65;5.40;;;;;;;2.58;99.13;103241.94;5054511;28;20048;-55
2022/02/27 08:24:34;;;;;;;14.18;5.13;;;;;;;2.52;98.47;103247.97;5055789;28;20049;-54
2022/02/27 08:27:03;;;;;;;15.20;5.45;;;;;;;2.77;98.61;103247.22;5055613;28;20095;-55
2022/02/27 08:29:31;;;;;;;13.48;5.05;;;;;;;2.74;96.95;103250.72;5055228;28;20059;-54
2022/02/27 08:31:59;;;;;;;11.57;4.90;;;;;;;2.83;96.09;103253.34;5054800;28;20040;-54
2022/02/27 08:34:29;;;;;;;14.35;5.38;;;;;;;3.01;97.01;103254.31;5055569;28;20045;-55
2022/02/27 08:36:58;;;;;;;12.70;5.07;;;;;;;3.31;95.27;103256.19;5055265;28;20053;-54
2022/02/27 08:39:26;;;;;;;13.10;4.45;;;;;;;3.94;94.30;103259.81;5053844;28;20041;-52
2022/02/27 08:41:54;;;;;;;14.48;4.65;;;;;;;4.19;91.66;103260.72;5051598;28;20435;-55
2022/02/27 08:44:23;;;;;;;14.43;4.57;;;;;;;4.20;90.24;103265.06;5053829;28;20471;-53
2022/02/27 08:46:51;;;;;;;12.38;5.20;;;;;;;4.40;90.06;103265.03;5054157;28;20048;-56
2022/02/27 08:49:19;;;;;;;12.43;4.72;;;;;;;4.80;90.26;103258.88;5054776;28;20488;-51
2022/02/27 08:51:47;;;;;;;8.93;3.85;;;;;;;4.54;88.85;103254.59;5051281;28;20491;-53
2022/02/27 08:54:17;;;;;;;12.55;4.25;;;;;;;4.98;88.66;103255.38;5052996;28;20051;-54
2022/02/27 08:56:45;;;;;;;13.07;4.55;;;;;;;5.02;84.40;103264.94;5054746;28;20049;-53
2022/02/27 08:59:13;;;;;;;12.13;3.80;;;;;;;5.30;83.79;103270.03;5054960;28;20049;-55
2022/02/27 09:01:41;;;;;;;14.98;4.65;;;;;;;5.14;83.42;103261.41;5054550;28;20049;-54
2022/02/27 09:04:10;;;;;;;9.55;4.38;;;;;;;5.37;81.43;103269.13;5050028;28;20422;-53
2022/02/27 09:06:38;;;;;;;10.80;4.20;;;;;;;5.38;80.34;103265.66;5051615;28;20044;-54
2022/02/27 09:09:06;;;;;;;10.75;4.15;;;;;;;5.55;80.07;103266.44;5054550;28;20565;-54
2022/02/27 09:11:36;;;;;;;10.98;4.43;;;;;;;5.75;81.09;103265.44;5054779;28;20095;-54
2022/02/27 09:14:04;;;;;;;14.10;5.03;;;;;;;5.76;78.74;103259.34;5054560;28;20041;-55
2022/02/27 09:16:32;;;;;;;11.77;4.55;;;;;;;5.81;76.96;103260.19;5054608;28;20053;-53
2022/02/27 09:19:00;;;;;;;9.20;3.97;;;;;;;5.95;76.87;103272.31;5053314;28;20061;-54
2022/02/27 09:21:28;;;;;;;10.20;4.22;;;;;;;6.30;78.79;103263.34;5052071;28;20056;-54
2022/02/27 09:23:56;;;;;;;13.05;4.07;;;;;;;6.45;77.58;103254.50;5050925;28;20041;-53
2022/02/27 09:26:24;;;;;;;10.02;4.70;;;;;;;6.55;76.55;103254.41;5053957;28;20053;-55
2022/02/27 09:29:01;;;;;;;15.70;4.32;;;;;;;6.79;77.20;103251.53;5054695;28;20098;-54
2022/02/27 09:31:29;;;;;;;9.70;4.10;;;;;;;6.96;73.40;103251.38;5053064;28;20049;-54
2022/02/27 09:34:00;;;;;;;11.05;3.88;;;;;;;7.16;72.42;103254.63;5048826;28;20044;-55
2022/02/27 09:36:28;;;;;;;11.30;4.00;;;;;;;6.83;69.02;103248.00;5052729;28;20308;-55
2022/02/27 09:38:56;;;;;;;11.85;3.85;;;;;;;7.20;69.36;103250.19;5050018;28;20106;-55
2022/02/27 09:41:24;;;;;;;10.90;3.13;;;;;;;6.94;63.10;103248.78;5051107;28;20055;-56
2022/02/27 09:43:56;;;;;;;7.47;3.40;;;;;;;7.20;63.90;103247.56;5053939;28;20072;-56
2022/02/27 09:46:27;;;;;;;8.43;3.60;;;;;;;7.38;64.92;103251.72;5054074;28;20053;-55
2022/02/27 09:48:56;;;;;;;8.93;2.95;;;;;;;7.57;64.55;103249.72;5054203;28;20045;-56
2022/02/27 09:51:25;;;;;;;8.70;3.55;;;;;;;7.67;62.72;103247.81;5050493;28;20458;-56
2022/02/27 09:53:53;;;;;;;9.27;3.25;;;;;;;7.72;60.26;103240.78;5049912;28;20065;-56
2022/02/27 09:56:22;;;;;;;11.20;3.15;;;;;;;7.59;59.93;103251.44;5053210;28;20052;-55
2022/02/27 09:58:50;;;;;;;7.68;3.15;;;;;;;7.70;58.79;103243.41;5053450;28;20079;-56
2022/02/27 10:01:19;;;;;;;10.48;2.97;;;;;;;7.49;60.40;103241.97;5053918;28;20053;-56
2022/02/27 10:03:49;;;;;;;8.73;3.08;;;;;;;7.95;59.11;103243.91;5049581;28;20103;-57
2022/02/27 10:06:18;;;;;;;8.48;3.80;;;;;;;8.33;59.65;103240.66;5050306;28;20052;-56
2022/02/27 10:08:48;;;;;;;12.20;4.13;;;;;;;8.15;58.18;103242.69;5053825;28;20060;-56
2022/02/27 10:11:20;;;;;;;10.60;3.30;;;;;;;8.03;58.10;103237.66;5051980;28;20500;-56
2022/02/27 10:13:51;;;;;;;7.18;3.30;;;;;;;8.00;57.66;103241.19;5049703;28;20057;-57
2022/02/27 10:16:21;;;;;;;7.45;2.92;;;;;;;8.01;57.64;103231.59;5053164;28;20565;-55
2022/02/27 10:18:53;;;;;;;8.23;3.90;;;;;;;7.94;57.31;103223.81;5048887;28;20045;-56
2022/02/27 10:21:23;;;;;;;10.85;3.58;;;;;;;8.05;57.90;103225.41;5050647;28;20057;-55
2022/02/27 10:24:13;;;;;;;10.98;3.42;;;;;;;8.28;57.76;103220.63;5053120;28;20496;-56
2022/02/27 10:26:43;;;;;;;8.55;3.33;;;;;;;8.51;56.61;103223.75;5053245;28;20045;-55
2022/02/27 10:29:13;;;;;;;8.48;3.55;;;;;;;8.43;55.88;103223.88;5053094;28;21054;-55
2022/02/27 10:31:42;;;;;;;7.70;3.28;;;;;;;8.51;56.39;103216.75;5052542;28;20055;-56
2022/02/27 10:34:21;;;;;;;10.82;3.80;;;;;;;8.77;57.38;103216.25;5053276;28;20494;-56
2022/02/27 10:36:53;;;;;;;9.80;3.33;;;;;;;8.80;55.95;103213.56;5053141;28;20048;-56
2022/02/27 10:39:29;;;;;;;9.02;3.35;;;;;;;8.67;55.48;103214.72;5053366;28;20400;-56
2022/02/27 10:42:13;;;;;;;11.07;4.13;;;;;;;8.77;54.75;103208.38;5051802;28;20053;-54
2022/02/27 10:44:44;;;;;;;9.40;4.10;;;;;;;8.95;55.32;103211.53;5049531;28;20500;-46
2022/02/27 10:47:18;;;;;;;10.65;3.15;;;;;;;9.30;53.88;103202.06;5050298;28;20380;-44
2022/02/27 10:49:49;;;;;;;10.13;3.50;;;;;;;9.30;54.21;103215.19;5052634;28;20491;-46
2022/02/27 10:52:22;;;;;;;7.80;3.10;;;;;;;9.18;55.07;103207.56;5051298;28;20057;-44
2022/02/27 10:54:52;;;;;;;8.27;3.22;;;;;;;9.29;53.83;103211.69;5051539;28;20052;-47
2022/02/27 10:57:32;;;;;;;10.95;3.50;;;;;;;9.27;54.04;103205.59;5049442;28;20522;-45
2022/02/27 11:00:14;;;;;;;10.57;3.92;;;;;;;9.16;53.72;103209.34;5050900;28;20052;-45
2022/02/27 11:02:43;;;;;;;11.52;3.95;;;;;;;9.02;54.22;103199.16;5052734;28;20055;-44
2022/02/27 11:05:14;;;;;;;8.48;3.47;;;;;;;9.41;53.89;103196.56;5052586;28;20580;-44
2022/02/27 11:07:44;;;;;;;8.93;3.20;;;;;;;9.26;52.65;103198.63;5052566;28;20380;-44
2022/02/27 11:10:13;;;;;;;9.35;3.85;;;;;;;9.47;52.90;103196.41;5052492;28;20106;-45
2022/02/27 11:12:42;;;;;;;9.15;3.38;;;;;;;9.66;51.85;103198.63;5052508;28;20037;-43
2022/02/27 11:15:15;;;;;;;11.00;3.47;;;;;;;9.90;51.67;103190.13;5052513;28;20504;-44
2022/02/27 11:17:44;;;;;;;11.07;4.10;;;;;;;9.73;51.96;103194.94;5051192;28;20053;-44
2022/02/27 11:20:19;;;;;;;9.30;3.33;;;;;;;10.01;51.78;103187.22;5052547;28;20148;-44
2022/02/27 11:22:47;;;;;;;8.48;3.45;;;;;;;9.68;51.41;103181.03;5052490;28;20091;-46